sensor_id;sensor_type;location;lat;lon;timestamp;temperature;humidity
15121;DHT22;7661;48.904;9.414;2024-03-06T00:02:07;5.80;99.90
15121;DHT22;7661;48.904;9.414;2024-03-06T00:04:34;5.80;99.90
15121;DHT22;7661;48.904;9.414;2024-03-06T00:07:01;5.80;99.90
15121;DHT22;7661;48.904;9.414;2024-03-06T00:09:28;5.80;99.90
15121;DHT22;7661;48.904;9.414;2024-03-06T00:11:54;5.80;99.90
15121;DHT22;7661;48.904;9.414;2024-03-06T00:14:23;5.80;99.90
15121;DHT22;7661;48.904;9.414;2024-03-06T00:16:50;5.80;99.90
15121;DHT22;7661;48.904;9.414;2024-03-06T00:19:17;5.80;99.90
15121;DHT22;7661;48.904;9.414;2024-03-06T00:21:43;5.80;99.90
15121;DHT22;7661;48.904;9.414;2024-03-06T00:24:11;5.80;99.90
15121;DHT22;7661;48.904;9.414;2024-03-06T00:26:39;5.80;99.90
15121;DHT22;7661;48.904;9.414;2024-03-06T00:29:05;5.90;99.90
15121;DHT22;7661;48.904;9.414;2024-03-06T00:31:34;5.90;99.90
15121;DHT22;7661;48.904;9.414;2024-03-06T00:34:00;5.90;99.90
15121;DHT22;7661;48.904;9.414;2024-03-06T00:36:27;5.90;99.90
15121;DHT22;7661;48.904;9.414;2024-03-06T00:38:54;5.90;99.90
15121;DHT22;7661;48.904;9.414;2024-03-06T00:41:20;5.80;99.90
15121;DHT22;7661;48.904;9.414;2024-03-06T00:43:47;5.80;99.90
15121;DHT22;7661;48.904;9.414;2024-03-06T00:46:14;5.80;99.90
15121;DHT22;7661;48.904;9.414;2024-03-06T00:48:42;5.80;99.90
15121;DHT22;7661;48.904;9.414;2024-03-06T00:51:08;5.80;99.90
15121;DHT22;7661;48.904;9.414;2024-03-06T00:53:35;5.80;99.90
15121;DHT22;7661;48.904;9.414;2024-03-06T00:56:02;5.70;99.90
15121;DHT22;7661;48.904;9.414;2024-03-06T00:58:29;5.70;99.90
15121;DHT22;7661;48.904;9.414;2024-03-06T01:00:56;5.70;99.90
15121;DHT22;7661;48.904;9.414;2024-03-06T01:03:23;5.70;99.90
15121;DHT22;7661;48.904;9.414;2024-03-06T01:05:52;5.70;99.90
15121;DHT22;7661;48.904;9.414;2024-03-06T01:08:18;5.60;99.90
15121;DHT22;7661;48.904;9.414;2024-03-06T01:10:45;5.60;99.90
15121;DHT22;7661;48.904;9.414;2024-03-06T01:13:12;5.60;99.90
15121;DHT22;7661;48.904;9.414;2024-03-06T01:15:39;5.50;99.90
15121;DHT22;7661;48.904;9.414;2024-03-06T01:18:05;5.50;99.90
15121;DHT22;7661;48.904;9.414;2024-03-06T01:20:32;5.50;99.90
15121;DHT22;7661;48.904;9.414;2024-03-06T01:23:00;5.50;99.90
15121;DHT22;7661;48.904;9.414;2024-03-06T01:25:27;5.50;99.90
15121;DHT22;7661;48.904;9.414;2024-03-06T01:27:53;5.50;99.90
15121;DHT22;7661;48.904;9.414;2024-03-06T01:30:20;5.50;99.90
15121;DHT22;7661;48.904;9.414;2024-03-06T01:32:47;5.50;99.90
15121;DHT22;7661;48.904;9.414;2024-03-06T01:35:14;5.50;99.90
15121;DHT22;7661;48.904;9.414;2024-03-06T01:37:40;5.60;99.90
15121;DHT22;7661;48.904;9.414;2024-03-06T01:40:09;5.60;99.90
15121;DHT22;7661;48.904;9.414;2024-03-06T01:42:37;5.50;99.90
15121;DHT22;7661;48.904;9.414;2024-03-06T01:45:04;5.50;99.90
15121;DHT22;7661;48.904;9.414;2024-03-06T01:47:32;5.50;99.90
15121;DHT22;7661;48.904;9.414;2024-03-06T01:49:59;5.50;99.90
15121;DHT22;7661;48.904;9.414;2024-03-06T01:52:27;5.50;99.90
15121;DHT22;7661;48.904;9.414;2024-03-06T01:54:53;5.50;99.90
15121;DHT22;7661;48.904;9.414;2024-03-06T01:57:23;5.50;99.90
15121;DHT22;7661;48.904;9.414;2024-03-06T01:59:50;5.50;99.90
15121;DHT22;7661;48.904;9.414;2024-03-06T02:02:17;5.50;99.90
15121;DHT22;7661;48.904;9.414;2024-03-06T02:04:43;5.50;99.90
15121;DHT22;7661;48.904;9.414;2024-03-06T02:07:11;5.50;99.90
15121;DHT22;7661;48.904;9.414;2024-03-06T02:09:39;5.50;99.90
15121;DHT22;7661;48.904;9.414;2024-03-06T02:12:06;5.40;99.90
15121;DHT22;7661;48.904;9.414;2024-03-06T02:14:35;5.50;99.90
15121;DHT22;7661;48.904;9.414;2024-03-06T02:17:02;5.40;99.90
15121;DHT22;7661;48.904;9.414;2024-03-06T02:19:37;5.40;99.90
15121;DHT22;7661;48.904;9.414;2024-03-06T02:22:04;5.40;99.90
15121;DHT22;7661;48.904;9.414;2024-03-06T02:24:30;5.40;99.90
15121;DHT22;7661;48.904;9.414;2024-03-06T02:26:57;5.40;99.90
15121;DHT22;7661;48.904;9.414;2024-03-06T02:29:24;5.50;99.90
15121;DHT22;7661;48.904;9.414;2024-03-06T02:31:50;5.50;99.90
15121;DHT22;7661;48.904;9.414;2024-03-06T02:34:17;5.40;99.90
15121;DHT22;7661;48.904;9.414;2024-03-06T02:36:44;5.40;99.90
15121;DHT22;7661;48.904;9.414;2024-03-06T02:39:12;5.40;99.90
15121;DHT22;7661;48.904;9.414;2024-03-06T02:41:40;5.50;99.90
15121;DHT22;7661;48.904;9.414;2024-03-06T02:44:06;5.50;99.90
15121;DHT22;7661;48.904;9.414;2024-03-06T02:46:33;5.60;99.90
15121;DHT22;7661;48.904;9.414;2024-03-06T02:49:00;5.50;99.90
15121;DHT22;7661;48.904;9.414;2024-03-06T02:51:27;5.40;99.90
15121;DHT22;7661;48.904;9.414;2024-03-06T02:53:53;5.40;99.90
15121;DHT22;7661;48.904;9.414;2024-03-06T02:56:21;5.40;99.90
15121;DHT22;7661;48.904;9.414;2024-03-06T02:58:48;5.50;99.90
15121;DHT22;7661;48.904;9.414;2024-03-06T03:01:15;5.50;99.90
15121;DHT22;7661;48.904;9.414;2024-03-06T03:03:42;5.50;99.90
15121;DHT22;7661;48.904;9.414;2024-03-06T03:06:09;5.50;99.90
15121;DHT22;7661;48.904;9.414;2024-03-06T03:08:37;5.50;99.90
15121;DHT22;7661;48.904;9.414;2024-03-06T03:11:04;5.50;99.90
15121;DHT22;7661;48.904;9.414;2024-03-06T03:13:32;5.40;99.90
15121;DHT22;7661;48.904;9.414;2024-03-06T03:15:59;5.40;99.90
15121;DHT22;7661;48.904;9.414;2024-03-06T03:18:28;5.40;99.90
15121;DHT22;7661;48.904;9.414;2024-03-06T03:20:54;5.40;99.90
15121;DHT22;7661;48.904;9.414;2024-03-06T03:23:21;5.40;99.90
15121;DHT22;7661;48.904;9.414;2024-03-06T03:25:48;5.50;99.90
15121;DHT22;7661;48.904;9.414;2024-03-06T03:28:15;5.40;99.90
15121;DHT22;7661;48.904;9.414;2024-03-06T03:30:43;5.50;99.90
15121;DHT22;7661;48.904;9.414;2024-03-06T03:33:10;5.50;99.90
15121;DHT22;7661;48.904;9.414;2024-03-06T03:35:37;5.50;99.90
15121;DHT22;7661;48.904;9.414;2024-03-06T03:38:04;5.50;99.90
15121;DHT22;7661;48.904;9.414;2024-03-06T03:40:31;5.50;99.90
15121;DHT22;7661;48.904;9.414;2024-03-06T03:42:58;5.50;99.90
15121;DHT22;7661;48.904;9.414;2024-03-06T03:45:31;5.50;99.90
15121;DHT22;7661;48.904;9.414;2024-03-06T03:47:59;5.50;99.90
15121;DHT22;7661;48.904;9.414;2024-03-06T03:50:28;5.50;99.90
15121;DHT22;7661;48.904;9.414;2024-03-06T03:52:54;5.50;99.90
15121;DHT22;7661;48.904;9.414;2024-03-06T03:55:23;5.50;99.90
15121;DHT22;7661;48.904;9.414;2024-03-06T03:57:50;5.50;99.90
15121;DHT22;7661;48.904;9.414;2024-03-06T04:00:17;5.50;99.90
15121;DHT22;7661;48.904;9.414;2024-03-06T04:02:44;5.50;99.90
15121;DHT22;7661;48.904;9.414;2024-03-06T04:05:12;5.50;99.90
15121;DHT22;7661;48.904;9.414;2024-03-06T04:07:39;5.40;99.90
15121;DHT22;7661;48.904;9.414;2024-03-06T04:10:06;5.40;99.90
15121;DHT22;7661;48.904;9.414;2024-03-06T04:12:35;5.30;99.90
15121;DHT22;7661;48.904;9.414;2024-03-06T04:15:02;5.40;99.90
15121;DHT22;7661;48.904;9.414;2024-03-06T04:17:29;5.40;99.90
15121;DHT22;7661;48.904;9.414;2024-03-06T04:19:56;5.40;99.90
15121;DHT22;7661;48.904;9.414;2024-03-06T04:22:24;5.40;99.90
15121;DHT22;7661;48.904;9.414;2024-03-06T04:24:51;5.50;99.90
15121;DHT22;7661;48.904;9.414;2024-03-06T04:27:18;5.40;99.90
15121;DHT22;7661;48.904;9.414;2024-03-06T04:29:44;5.40;99.90
15121;DHT22;7661;48.904;9.414;2024-03-06T04:32:11;5.40;99.90
15121;DHT22;7661;48.904;9.414;2024-03-06T04:34:38;5.50;99.90
15121;DHT22;7661;48.904;9.414;2024-03-06T04:37:05;5.50;99.90
15121;DHT22;7661;48.904;9.414;2024-03-06T04:39:33;5.50;99.90
15121;DHT22;7661;48.904;9.414;2024-03-06T04:41:59;5.50;99.90
15121;DHT22;7661;48.904;9.414;2024-03-06T04:44:27;5.50;99.90
15121;DHT22;7661;48.904;9.414;2024-03-06T04:46:54;5.50;99.90
15121;DHT22;7661;48.904;9.414;2024-03-06T04:49:20;5.50;99.90
15121;DHT22;7661;48.904;9.414;2024-03-06T04:51:47;5.50;99.90
15121;DHT22;7661;48.904;9.414;2024-03-06T04:54:14;5.50;99.90
15121;DHT22;7661;48.904;9.414;2024-03-06T04:56:42;5.50;99.90
15121;DHT22;7661;48.904;9.414;2024-03-06T04:59:08;5.40;99.90
15121;DHT22;7661;48.904;9.414;2024-03-06T05:01:35;5.50;99.90
15121;DHT22;7661;48.904;9.414;2024-03-06T05:04:02;5.50;99.90
15121;DHT22;7661;48.904;9.414;2024-03-06T05:06:29;5.50;99.90
15121;DHT22;7661;48.904;9.414;2024-03-06T05:08:56;5.50;99.90
15121;DHT22;7661;48.904;9.414;2024-03-06T05:11:22;5.50;99.90
15121;DHT22;7661;48.904;9.414;2024-03-06T05:13:50;5.50;99.90
15121;DHT22;7661;48.904;9.414;2024-03-06T05:16:17;5.40;99.90
15121;DHT22;7661;48.904;9.414;2024-03-06T05:18:44;5.50;99.90
15121;DHT22;7661;48.904;9.414;2024-03-06T05:21:11;5.50;99.90
15121;DHT22;7661;48.904;9.414;2024-03-06T05:23:38;5.50;99.90
15121;DHT22;7661;48.904;9.414;2024-03-06T05:26:05;5.50;99.90
15121;DHT22;7661;48.904;9.414;2024-03-06T05:28:31;5.50;99.90
15121;DHT22;7661;48.904;9.414;2024-03-06T05:30:59;5.50;99.90
15121;DHT22;7661;48.904;9.414;2024-03-06T05:33:27;5.50;99.90
15121;DHT22;7661;48.904;9.414;2024-03-06T05:35:55;5.50;99.90
15121;DHT22;7661;48.904;9.414;2024-03-06T05:38:21;5.50;99.90
15121;DHT22;7661;48.904;9.414;2024-03-06T05:40:48;5.50;99.90
15121;DHT22;7661;48.904;9.414;2024-03-06T05:43:15;5.50;99.90
15121;DHT22;7661;48.904;9.414;2024-03-06T05:45:41;5.50;99.90
15121;DHT22;7661;48.904;9.414;2024-03-06T05:48:09;5.50;99.90
15121;DHT22;7661;48.904;9.414;2024-03-06T05:50:36;5.50;99.90
15121;DHT22;7661;48.904;9.414;2024-03-06T05:53:04;5.40;99.90
15121;DHT22;7661;48.904;9.414;2024-03-06T05:55:31;5.40;99.90
15121;DHT22;7661;48.904;9.414;2024-03-06T05:57:57;5.40;99.90
15121;DHT22;7661;48.904;9.414;2024-03-06T06:00:25;5.40;99.90
15121;DHT22;7661;48.904;9.414;2024-03-06T06:02:51;5.40;99.90
15121;DHT22;7661;48.904;9.414;2024-03-06T06:05:19;5.40;99.90
15121;DHT22;7661;48.904;9.414;2024-03-06T06:07:48;5.40;99.90
15121;DHT22;7661;48.904;9.414;2024-03-06T06:10:15;5.40;99.90
15121;DHT22;7661;48.904;9.414;2024-03-06T06:12:41;5.40;99.90
15121;DHT22;7661;48.904;9.414;2024-03-06T06:15:09;5.40;99.90
15121;DHT22;7661;48.904;9.414;2024-03-06T06:17:36;5.40;99.90
15121;DHT22;7661;48.904;9.414;2024-03-06T06:20:03;5.40;99.90
15121;DHT22;7661;48.904;9.414;2024-03-06T06:22:36;5.40;99.90
15121;DHT22;7661;48.904;9.414;2024-03-06T06:25:03;5.40;99.90
15121;DHT22;7661;48.904;9.414;2024-03-06T06:27:30;5.40;99.90
15121;DHT22;7661;48.904;9.414;2024-03-06T06:29:57;5.40;99.90
15121;DHT22;7661;48.904;9.414;2024-03-06T06:32:24;5.50;99.90
15121;DHT22;7661;48.904;9.414;2024-03-06T06:34:51;5.50;99.90
15121;DHT22;7661;48.904;9.414;2024-03-06T06:37:18;5.50;99.90
15121;DHT22;7661;48.904;9.414;2024-03-06T06:39:46;5.50;99.90
15121;DHT22;7661;48.904;9.414;2024-03-06T06:42:13;5.50;99.90
15121;DHT22;7661;48.904;9.414;2024-03-06T06:44:40;5.50;99.90
15121;DHT22;7661;48.904;9.414;2024-03-06T06:47:07;5.50;99.90
15121;DHT22;7661;48.904;9.414;2024-03-06T06:49:34;5.50;99.90
15121;DHT22;7661;48.904;9.414;2024-03-06T06:52:00;5.50;99.90
15121;DHT22;7661;48.904;9.414;2024-03-06T06:54:27;5.50;99.90
15121;DHT22;7661;48.904;9.414;2024-03-06T06:56:55;5.50;99.90
15121;DHT22;7661;48.904;9.414;2024-03-06T06:59:22;5.50;99.90
15121;DHT22;7661;48.904;9.414;2024-03-06T07:01:48;5.50;99.90
15121;DHT22;7661;48.904;9.414;2024-03-06T07:04:15;5.50;99.90
15121;DHT22;7661;48.904;9.414;2024-03-06T07:06:45;5.50;99.90
15121;DHT22;7661;48.904;9.414;2024-03-06T07:09:12;5.50;99.90
15121;DHT22;7661;48.904;9.414;2024-03-06T07:11:41;5.60;99.90
15121;DHT22;7661;48.904;9.414;2024-03-06T07:14:11;5.60;99.90
15121;DHT22;7661;48.904;9.414;2024-03-06T07:16:41;5.70;99.90
15121;DHT22;7661;48.904;9.414;2024-03-06T07:19:08;5.70;99.90
15121;DHT22;7661;48.904;9.414;2024-03-06T07:21:34;5.70;99.90
15121;DHT22;7661;48.904;9.414;2024-03-06T07:24:01;5.70;99.90
15121;DHT22;7661;48.904;9.414;2024-03-06T07:26:28;5.70;99.90
15121;DHT22;7661;48.904;9.414;2024-03-06T07:28:55;5.80;99.90
15121;DHT22;7661;48.904;9.414;2024-03-06T07:31:24;5.80;99.90
15121;DHT22;7661;48.904;9.414;2024-03-06T07:33:51;5.80;99.90
15121;DHT22;7661;48.904;9.414;2024-03-06T07:36:18;5.90;99.90
15121;DHT22;7661;48.904;9.414;2024-03-06T07:38:45;6.00;99.90
15121;DHT22;7661;48.904;9.414;2024-03-06T07:41:12;6.00;99.90
15121;DHT22;7661;48.904;9.414;2024-03-06T07:43:39;6.10;99.90
15121;DHT22;7661;48.904;9.414;2024-03-06T07:46:05;6.10;99.90
15121;DHT22;7661;48.904;9.414;2024-03-06T07:48:37;6.10;99.90
15121;DHT22;7661;48.904;9.414;2024-03-06T07:51:04;6.10;99.90
15121;DHT22;7661;48.904;9.414;2024-03-06T07:53:31;6.10;99.90
15121;DHT22;7661;48.904;9.414;2024-03-06T07:55:58;6.10;99.90
15121;DHT22;7661;48.904;9.414;2024-03-06T07:58:24;6.10;99.90
15121;DHT22;7661;48.904;9.414;2024-03-06T08:00:51;6.20;99.90
15121;DHT22;7661;48.904;9.414;2024-03-06T08:03:21;6.10;99.90
15121;DHT22;7661;48.904;9.414;2024-03-06T08:05:49;6.20;99.90
15121;DHT22;7661;48.904;9.414;2024-03-06T08:08:16;6.10;99.90
15121;DHT22;7661;48.904;9.414;2024-03-06T08:10:43;6.20;99.90
15121;DHT22;7661;48.904;9.414;2024-03-06T08:13:10;6.10;99.90
15121;DHT22;7661;48.904;9.414;2024-03-06T08:15:37;6.20;99.90
15121;DHT22;7661;48.904;9.414;2024-03-06T08:18:03;6.20;99.90
15121;DHT22;7661;48.904;9.414;2024-03-06T08:20:30;6.20;99.90
15121;DHT22;7661;48.904;9.414;2024-03-06T08:22:58;6.20;99.90
15121;DHT22;7661;48.904;9.414;2024-03-06T08:25:25;6.30;99.90
15121;DHT22;7661;48.904;9.414;2024-03-06T08:27:52;6.30;99.90
15121;DHT22;7661;48.904;9.414;2024-03-06T08:30:18;6.30;99.90
15121;DHT22;7661;48.904;9.414;2024-03-06T08:32:45;6.20;99.90
15121;DHT22;7661;48.904;9.414;2024-03-06T08:35:12;6.20;99.90
15121;DHT22;7661;48.904;9.414;2024-03-06T08:37:39;6.30;99.90
15121;DHT22;7661;48.904;9.414;2024-03-06T08:40:07;6.30;99.90
15121;DHT22;7661;48.904;9.414;2024-03-06T08:42:35;6.30;99.90
15121;DHT22;7661;48.904;9.414;2024-03-06T08:45:03;6.30;99.90
15121;DHT22;7661;48.904;9.414;2024-03-06T08:47:30;6.40;99.90
15121;DHT22;7661;48.904;9.414;2024-03-06T08:49:56;6.40;99.90
15121;DHT22;7661;48.904;9.414;2024-03-06T08:52:23;6.40;99.90
15121;DHT22;7661;48.904;9.414;2024-03-06T08:54:50;6.40;99.90
15121;DHT22;7661;48.904;9.414;2024-03-06T08:57:18;6.40;99.90
15121;DHT22;7661;48.904;9.414;2024-03-06T08:59:46;6.40;99.90
15121;DHT22;7661;48.904;9.414;2024-03-06T09:02:13;6.40;99.90
15121;DHT22;7661;48.904;9.414;2024-03-06T09:04:40;6.40;99.90
15121;DHT22;7661;48.904;9.414;2024-03-06T09:07:07;6.50;99.90
15121;DHT22;7661;48.904;9.414;2024-03-06T09:09:34;6.40;99.90
15121;DHT22;7661;48.904;9.414;2024-03-06T09:12:01;6.40;99.90
15121;DHT22;7661;48.904;9.414;2024-03-06T09:14:31;6.50;99.90
15121;DHT22;7661;48.904;9.414;2024-03-06T09:16:58;6.50;99.90
15121;DHT22;7661;48.904;9.414;2024-03-06T09:19:24;6.40;99.90
15121;DHT22;7661;48.904;9.414;2024-03-06T09:21:51;6.40;99.90
15121;DHT22;7661;48.904;9.414;2024-03-06T09:24:19;6.40;99.90
15121;DHT22;7661;48.904;9.414;2024-03-06T09:26:47;6.40;99.90
15121;DHT22;7661;48.904;9.414;2024-03-06T09:29:14;6.50;99.90
15121;DHT22;7661;48.904;9.414;2024-03-06T09:31:42;6.40;99.90
15121;DHT22;7661;48.904;9.414;2024-03-06T09:34:09;6.50;99.90
15121;DHT22;7661;48.904;9.414;2024-03-06T09:36:37;6.50;99.90
15121;DHT22;7661;48.904;9.414;2024-03-06T09:39:03;6.50;99.90
15121;DHT22;7661;48.904;9.414;2024-03-06T09:41:30;6.60;99.90
15121;DHT22;7661;48.904;9.414;2024-03-06T09:43:59;6.60;99.90
15121;DHT22;7661;48.904;9.414;2024-03-06T09:46:26;6.60;99.90
15121;DHT22;7661;48.904;9.414;2024-03-06T09:48:54;6.70;99.90
15121;DHT22;7661;48.904;9.414;2024-03-06T09:51:21;6.70;99.90
15121;DHT22;7661;48.904;9.414;2024-03-06T09:53:48;6.80;99.90
15121;DHT22;7661;48.904;9.414;2024-03-06T09:56:17;6.80;99.90
15121;DHT22;7661;48.904;9.414;2024-03-06T09:58:44;6.80;99.90
15121;DHT22;7661;48.904;9.414;2024-03-06T10:01:12;6.80;99.90
15121;DHT22;7661;48.904;9.414;2024-03-06T10:03:39;6.90;99.90
15121;DHT22;7661;48.904;9.414;2024-03-06T10:06:08;6.90;99.90
15121;DHT22;7661;48.904;9.414;2024-03-06T10:08:35;7.00;99.90
15121;DHT22;7661;48.904;9.414;2024-03-06T10:11:03;7.10;99.90
15121;DHT22;7661;48.904;9.414;2024-03-06T10:13:30;7.10;99.90
15121;DHT22;7661;48.904;9.414;2024-03-06T10:15:57;7.20;99.90
15121;DHT22;7661;48.904;9.414;2024-03-06T10:18:26;7.20;99.90
15121;DHT22;7661;48.904;9.414;2024-03-06T10:20:52;7.20;99.90
15121;DHT22;7661;48.904;9.414;2024-03-06T10:23:20;7.20;99.90
15121;DHT22;7661;48.904;9.414;2024-03-06T10:25:47;7.30;99.90
15121;DHT22;7661;48.904;9.414;2024-03-06T10:28:18;7.30;99.90
15121;DHT22;7661;48.904;9.414;2024-03-06T10:30:45;7.30;99.90
15121;DHT22;7661;48.904;9.414;2024-03-06T10:33:12;7.30;99.90
15121;DHT22;7661;48.904;9.414;2024-03-06T10:35:39;7.30;99.90
15121;DHT22;7661;48.904;9.414;2024-03-06T10:38:06;7.30;99.90
15121;DHT22;7661;48.904;9.414;2024-03-06T10:40:35;7.30;99.90
15121;DHT22;7661;48.904;9.414;2024-03-06T10:43:03;7.30;99.90
15121;DHT22;7661;48.904;9.414;2024-03-06T10:45:32;7.30;99.90
15121;DHT22;7661;48.904;9.414;2024-03-06T10:48:03;7.40;99.90
15121;DHT22;7661;48.904;9.414;2024-03-06T10:50:30;7.40;99.90
15121;DHT22;7661;48.904;9.414;2024-03-06T10:52:57;7.40;99.90
15121;DHT22;7661;48.904;9.414;2024-03-06T10:55:25;7.40;99.90
15121;DHT22;7661;48.904;9.414;2024-03-06T10:57:53;7.50;99.90
15121;DHT22;7661;48.904;9.414;2024-03-06T11:00:22;7.50;99.90
15121;DHT22;7661;48.904;9.414;2024-03-06T11:02:49;7.60;99.90
15121;DHT22;7661;48.904;9.414;2024-03-06T11:05:17;7.70;99.90
15121;DHT22;7661;48.904;9.414;2024-03-06T11:07:44;7.70;99.90
15121;DHT22;7661;48.904;9.414;2024-03-06T11:10:11;7.80;99.90
15121;DHT22;7661;48.904;9.414;2024-03-06T11:12:42;7.80;99.90
15121;DHT22;7661;48.904;9.414;2024-03-06T11:15:14;7.90;99.90
15121;DHT22;7661;48.904;9.414;2024-03-06T11:17:42;7.90;99.90
15121;DHT22;7661;48.904;9.414;2024-03-06T11:20:12;7.90;99.90
15121;DHT22;7661;48.904;9.414;2024-03-06T11:28:19;7.90;99.90
15121;DHT22;7661;48.904;9.414;2024-03-06T11:30:47;8.00;99.90
15121;DHT22;7661;48.904;9.414;2024-03-06T11:33:16;8.00;99.90
15121;DHT22;7661;48.904;9.414;2024-03-06T11:35:43;8.10;99.90
15121;DHT22;7661;48.904;9.414;2024-03-06T11:38:16;8.20;99.90
15121;DHT22;7661;48.904;9.414;2024-03-06T11:40:43;8.20;99.90
15121;DHT22;7661;48.904;9.414;2024-03-06T11:43:22;8.30;99.90
15121;DHT22;7661;48.904;9.414;2024-03-06T11:45:51;8.30;99.90
15121;DHT22;7661;48.904;9.414;2024-03-06T11:48:17;8.30;99.90
15121;DHT22;7661;48.904;9.414;2024-03-06T11:50:47;8.30;99.90
15121;DHT22;7661;48.904;9.414;2024-03-06T11:53:14;8.30;99.90
15121;DHT22;7661;48.904;9.414;2024-03-06T11:55:41;8.30;99.90
15121;DHT22;7661;48.904;9.414;2024-03-06T11:58:08;8.30;99.90
15121;DHT22;7661;48.904;9.414;2024-03-06T12:00:37;8.30;99.90
15121;DHT22;7661;48.904;9.414;2024-03-06T12:03:05;8.30;99.90
15121;DHT22;7661;48.904;9.414;2024-03-06T12:05:31;8.20;99.90
15121;DHT22;7661;48.904;9.414;2024-03-06T12:07:59;8.20;99.90
15121;DHT22;7661;48.904;9.414;2024-03-06T12:10:26;8.10;99.90
15121;DHT22;7661;48.904;9.414;2024-03-06T12:12:52;8.10;99.90
15121;DHT22;7661;48.904;9.414;2024-03-06T12:15:19;8.10;99.90
15121;DHT22;7661;48.904;9.414;2024-03-06T12:17:47;8.00;99.90
15121;DHT22;7661;48.904;9.414;2024-03-06T12:20:15;8.00;99.90
15121;DHT22;7661;48.904;9.414;2024-03-06T12:22:45;8.00;99.90
15121;DHT22;7661;48.904;9.414;2024-03-06T12:25:17;8.00;99.90
15121;DHT22;7661;48.904;9.414;2024-03-06T12:27:44;8.00;99.90
15121;DHT22;7661;48.904;9.414;2024-03-06T12:30:11;8.00;99.90
15121;DHT22;7661;48.904;9.414;2024-03-06T12:32:38;8.00;99.90
15121;DHT22;7661;48.904;9.414;2024-03-06T12:35:05;7.90;99.90
15121;DHT22;7661;48.904;9.414;2024-03-06T12:37:33;7.90;99.90
15121;DHT22;7661;48.904;9.414;2024-03-06T12:40:00;7.90;99.90
15121;DHT22;7661;48.904;9.414;2024-03-06T12:42:28;7.90;99.90
15121;DHT22;7661;48.904;9.414;2024-03-06T12:44:55;7.90;99.90
15121;DHT22;7661;48.904;9.414;2024-03-06T12:47:22;7.90;99.90
15121;DHT22;7661;48.904;9.414;2024-03-06T12:49:49;7.90;99.90
15121;DHT22;7661;48.904;9.414;2024-03-06T12:52:16;7.90;99.90
15121;DHT22;7661;48.904;9.414;2024-03-06T12:54:45;7.80;99.90
15121;DHT22;7661;48.904;9.414;2024-03-06T12:57:11;7.80;99.90
15121;DHT22;7661;48.904;9.414;2024-03-06T12:59:38;7.80;99.90
15121;DHT22;7661;48.904;9.414;2024-03-06T13:02:05;7.80;99.90
15121;DHT22;7661;48.904;9.414;2024-03-06T13:04:32;7.80;99.90
15121;DHT22;7661;48.904;9.414;2024-03-06T13:06:59;7.80;99.90
15121;DHT22;7661;48.904;9.414;2024-03-06T13:09:25;7.80;99.90
15121;DHT22;7661;48.904;9.414;2024-03-06T13:11:53;7.80;99.90
15121;DHT22;7661;48.904;9.414;2024-03-06T13:14:20;7.70;99.90
15121;DHT22;7661;48.904;9.414;2024-03-06T13:16:47;7.70;99.90
15121;DHT22;7661;48.904;9.414;2024-03-06T13:19:14;7.70;99.90
15121;DHT22;7661;48.904;9.414;2024-03-06T13:21:40;7.70;99.90
15121;DHT22;7661;48.904;9.414;2024-03-06T13:24:07;7.70;99.90
15121;DHT22;7661;48.904;9.414;2024-03-06T13:26:34;7.70;99.90
15121;DHT22;7661;48.904;9.414;2024-03-06T13:29:04;7.70;99.90
15121;DHT22;7661;48.904;9.414;2024-03-06T13:31:31;7.70;99.90
15121;DHT22;7661;48.904;9.414;2024-03-06T13:33:59;7.70;99.90
15121;DHT22;7661;48.904;9.414;2024-03-06T13:36:26;7.80;99.90
15121;DHT22;7661;48.904;9.414;2024-03-06T13:38:53;7.80;99.90
15121;DHT22;7661;48.904;9.414;2024-03-06T13:41:19;7.80;99.90
15121;DHT22;7661;48.904;9.414;2024-03-06T13:43:46;7.80;99.90
15121;DHT22;7661;48.904;9.414;2024-03-06T13:46:14;7.70;99.90
15121;DHT22;7661;48.904;9.414;2024-03-06T13:48:41;7.70;99.90
15121;DHT22;7661;48.904;9.414;2024-03-06T13:51:07;7.80;99.90
15121;DHT22;7661;48.904;9.414;2024-03-06T13:53:34;7.80;99.90
15121;DHT22;7661;48.904;9.414;2024-03-06T13:56:01;7.80;99.90
15121;DHT22;7661;48.904;9.414;2024-03-06T13:58:28;7.80;99.90
15121;DHT22;7661;48.904;9.414;2024-03-06T14:00:55;7.70;99.90
15121;DHT22;7661;48.904;9.414;2024-03-06T14:03:23;7.80;99.90
15121;DHT22;7661;48.904;9.414;2024-03-06T14:05:49;7.90;99.90
15121;DHT22;7661;48.904;9.414;2024-03-06T14:08:16;7.90;99.90
15121;DHT22;7661;48.904;9.414;2024-03-06T14:10:43;7.90;99.90
15121;DHT22;7661;48.904;9.414;2024-03-06T14:13:11;7.90;99.90
15121;DHT22;7661;48.904;9.414;2024-03-06T14:15:37;7.90;99.90
15121;DHT22;7661;48.904;9.414;2024-03-06T14:18:04;8.00;99.90
15121;DHT22;7661;48.904;9.414;2024-03-06T14:20:33;8.00;99.90
15121;DHT22;7661;48.904;9.414;2024-03-06T14:22:59;8.00;99.90
15121;DHT22;7661;48.904;9.414;2024-03-06T14:25:26;8.00;99.90
15121;DHT22;7661;48.904;9.414;2024-03-06T14:27:53;8.00;99.90
15121;DHT22;7661;48.904;9.414;2024-03-06T14:30:19;8.00;99.90
15121;DHT22;7661;48.904;9.414;2024-03-06T14:32:46;7.90;99.90
15121;DHT22;7661;48.904;9.414;2024-03-06T14:35:13;7.90;99.90
15121;DHT22;7661;48.904;9.414;2024-03-06T14:37:42;7.90;99.90
15121;DHT22;7661;48.904;9.414;2024-03-06T14:40:09;7.90;99.90
15121;DHT22;7661;48.904;9.414;2024-03-06T14:42:36;7.90;99.90
15121;DHT22;7661;48.904;9.414;2024-03-06T14:45:02;7.90;99.90
15121;DHT22;7661;48.904;9.414;2024-03-06T14:47:31;7.90;99.90
15121;DHT22;7661;48.904;9.414;2024-03-06T14:49:58;8.00;99.90
15121;DHT22;7661;48.904;9.414;2024-03-06T14:52:25;8.00;99.90
15121;DHT22;7661;48.904;9.414;2024-03-06T14:54:53;8.10;99.90
15121;DHT22;7661;48.904;9.414;2024-03-06T14:57:20;8.10;99.90
15121;DHT22;7661;48.904;9.414;2024-03-06T14:59:48;8.10;99.90
15121;DHT22;7661;48.904;9.414;2024-03-06T15:02:15;8.10;99.90
15121;DHT22;7661;48.904;9.414;2024-03-06T15:04:42;8.10;99.90
15121;DHT22;7661;48.904;9.414;2024-03-06T15:07:08;8.00;99.90
15121;DHT22;7661;48.904;9.414;2024-03-06T15:09:35;8.00;99.90
15121;DHT22;7661;48.904;9.414;2024-03-06T15:12:04;8.00;99.90
15121;DHT22;7661;48.904;9.414;2024-03-06T15:14:31;8.00;99.90
15121;DHT22;7661;48.904;9.414;2024-03-06T15:16:58;8.00;99.90
15121;DHT22;7661;48.904;9.414;2024-03-06T15:19:25;7.90;99.90
15121;DHT22;7661;48.904;9.414;2024-03-06T15:21:51;7.90;99.90
15121;DHT22;7661;48.904;9.414;2024-03-06T15:24:19;7.90;99.90
15121;DHT22;7661;48.904;9.414;2024-03-06T15:26:46;7.90;99.90
15121;DHT22;7661;48.904;9.414;2024-03-06T15:29:14;7.90;99.90
15121;DHT22;7661;48.904;9.414;2024-03-06T15:31:40;7.90;99.90
15121;DHT22;7661;48.904;9.414;2024-03-06T15:34:07;7.90;99.90
15121;DHT22;7661;48.904;9.414;2024-03-06T15:36:34;8.00;99.90
15121;DHT22;7661;48.904;9.414;2024-03-06T15:39:01;8.00;99.90
15121;DHT22;7661;48.904;9.414;2024-03-06T15:41:31;8.00;99.90
15121;DHT22;7661;48.904;9.414;2024-03-06T15:43:58;8.00;99.90
15121;DHT22;7661;48.904;9.414;2024-03-06T15:46:26;8.00;99.90
15121;DHT22;7661;48.904;9.414;2024-03-06T15:48:53;8.00;99.90
15121;DHT22;7661;48.904;9.414;2024-03-06T15:51:20;8.00;99.90
15121;DHT22;7661;48.904;9.414;2024-03-06T15:53:46;8.00;99.90
15121;DHT22;7661;48.904;9.414;2024-03-06T15:56:13;7.90;99.90
15121;DHT22;7661;48.904;9.414;2024-03-06T15:58:40;7.90;99.90
15121;DHT22;7661;48.904;9.414;2024-03-06T16:01:06;7.90;99.90
15121;DHT22;7661;48.904;9.414;2024-03-06T16:03:34;7.90;99.90
15121;DHT22;7661;48.904;9.414;2024-03-06T16:06:01;7.90;99.90
15121;DHT22;7661;48.904;9.414;2024-03-06T16:08:28;7.90;99.90